CheckWX is a tool to help pilots better visualize weather data.  It is not intended as a substitute for an official pre-flight weather briefing.

10:10:15 UTC

FQCH TAF
Chimoio Airport
Chimoio, Mozambique
TAF FQCH 260400Z 2606/2706 15010KT 9999 FEW015 TX19/2613Z TN10/2703Z PROB30 TEMPO 2606/2612 5000 -RADZ SCT015 BECMG 2612/2614 08010KT

Jun-26@
06:00 UTC

Jun-26 @ 06:00 UTC

Jun-26@
12:00 UTC

Jun-26 @ 12:00 UTC

TAF FQCH 260400Z 2606/2706 15010KT 9999 FEW015 TX19/2613Z TN10/2703Z
Wind
  • 150° at 10 KTS
Cloud Levels
  • Few at 1,500' AGL

Jun-26@
06:00 UTC

Jun-26 @ 06:00 UTC

Jun-26@
12:00 UTC

Jun-26 @ 12:00 UTC

PROB30 TEMPO 2606/2612 5000 -RADZ SCT015

Temporary - 30% Likelihood

Temporary - 30% Likelihood during this time.

Conditions
Light Rain, Light Drizzle
Cloud Levels
  • Scattered at 1,500' AGL

Jun-26@
12:00 UTC

Jun-26 @ 12:00 UTC

Jun-27@
06:00 UTC

Jun-27 @ 06:00 UTC

BECMG 2612/2614 08010KT

Becoming

Becoming Conditions expected by Wed, Jun 26, 2019 @ 14:00 UTC

Wind
  • 080° at 10 KTS
Cloud Levels
  • Few at 1,500' AGL